Flight Track Log - Related Links

Times and Time Zones

All times are in EDT time to prevent confusion due to time zone crossing. See the CTL13 flight status page for this flight to view local times or setup timezone preferences in your user account.

Time Position Orientation Groundspeed Altitude Reporting Facility
EDT Latitude Longitude Course Direction KTS MPH feet Rate Location/Type
Mon 08:35:40 PM 40.0667 -86.3167 360° North 154 177 2,500  Level Indianapolis TRACON
Mon 08:37:00 PM 40.1093 -86.2634 44° Northeast  Level FlightAware Approximate
Mon 08:40:03 PM 40.2253 -86.2350 66° East 145 167 4,000  Level Chicago Center
Mon 08:41:03 PM 40.2711 -86.2375 358° North 159 183 4,000  Level Chicago Center
Mon 08:42:04 PM 40.3144 -86.2536 344° North 167 192 4,000  Level Chicago Center
Mon 08:43:05 PM 40.3658 -86.2700 346° North 179 206 4,000  Level Chicago Center
Mon 08:44:00 PM 40.3677 -86.4870 13° North  Level Estimated
Mon 08:44:05 PM 40.4133 -86.2919 341° North 185 213 4,000  Level Chicago Center
Mon 08:45:00 PM 40.3859 -86.4340 66° East  Level FlightAware Approximate
Mon 08:45:06 PM 40.4647 -86.3111 344° North 188 216 4,000  Level Chicago Center
Mon 08:46:13 PM 40.5225 -86.3308 345° North 188 216 4,000 53 Level Chicago Center
Mon 08:46:59 PM 40.5544 -86.3392 349° North 183 211 4,100 56 Climbing Chicago Center
Mon 08:48:01 PM 40.6058 -86.3619 341° North 193 222 4,100  Level Chicago Center
Mon 08:49:03 PM 40.6558 -86.3828 342° North 191 220 4,100 -48 Level Chicago Center
Mon 08:50:05 PM 40.7069 -86.4031 343° North 191 220 4,000 -48 Descending Chicago Center
Mon 08:51:07 PM 40.7675 -86.4283 342° North 191 220 4,000  Level Chicago Center
Mon 08:52:09 PM 40.8128 -86.4492 341° North 192 221 4,000  Level Chicago Center
Mon 08:53:11 PM 40.8728 -86.4764 341° North 191 220 4,000  Level Chicago Center
Mon 08:54:12 PM 40.9244 -86.4975 343° North 194 223 4,000  Level Chicago Center
Mon 08:55:14 PM 40.9719 -86.5172 343° North 194 223 4,000  Level Chicago Center
Mon 08:56:16 PM 41.0231 -86.5383 343° North 192 221 4,000 48 Level Chicago Center
Mon 08:57:18 PM 41.0747 -86.5589 343° North 193 222 4,100 48 Climbing Chicago Center
Mon 08:58:20 PM 41.1350 -86.5811 344° North 190 219 4,100 -48 Level Chicago Center
Mon 08:59:22 PM 41.1878 -86.5981 346° North 192 221 4,000  Descending Chicago Center
Mon 09:00:25 PM 41.2131 -86.6436 306° West 164 189 4,100 49 Climbing Chicago Center
Mon 09:01:25 PM 41.2328 -86.6978 296° West 162 186 4,100 -49 Level Chicago Center
Mon 09:02:27 PM 41.2561 -86.7525 300° West 165 190 4,000 -48 Descending Chicago Center
Mon 09:03:29 PM 41.2797 -86.8075 300° West 169 194 4,000  Level Chicago Center
Mon 09:04:31 PM 41.3047 -86.8733 297° West 169 194 4,000  Level Chicago Center
Mon 09:05:33 PM 41.3261 -86.9286 297° West 169 194 4,000  Level Chicago Center
Mon 09:06:35 PM 41.3456 -86.9836 295° West 168 193 4,000  Level Chicago Center
Mon 09:07:37 PM 41.3678 -87.0386 298° West 168 193 4,000  Level Chicago Center
Mon 09:08:38 PM 41.3964 -87.0878 308° West 168 193 4,000  Level Chicago Center
Mon 09:09:40 PM 41.4247 -87.1392 306° West 171 197 4,000  Level Chicago Center
Mon 09:10:42 PM 41.4464 -87.2075 293° West 170 196 4,000  Level Chicago Center
Mon 09:11:44 PM 41.4583 -87.2683 285° West 170 196 4,000  Level Chicago Center
Mon 09:12:45 PM 41.4833 -87.3333 297° West 176 203 4,000  Level Chicago TRACON
Mon 09:13:45 PM 41.5167 -87.3667 323° Northwest 166 191 4,000  Level Chicago TRACON
Mon 09:14:39 PM 41.5500 -87.4167 312° West 164 189 4,000  Level Chicago TRACON
Mon 09:15:39 PM 41.5500 -87.4667 270° West 165 190 4,000  Level Chicago TRACON
Mon 09:16:40 PM 41.5833 -87.5000 323° Northwest 161 185 4,000  Level Chicago TRACON
Mon 09:17:40 PM 41.6167 -87.5333 323° Northwest 165 190 4,000 80 Level Chicago TRACON
Mon 09:17:55 PM 41.6294 -87.5358 352° North 162 186 4,100  Climbing Chicago Center
Mon 09:18:57 PM 41.6628 -87.5775 317° Northwest 164 189 4,000 -532 Descending Chicago Center
Mon 09:19:59 PM 41.6906 -87.6203 311° West 161 185 3,000 -928 Descending Chicago Center
Mon 09:20:34 PM 41.7167 -87.6500 320° Northwest 134 154 2,500 -758 Descending Chicago TRACON
Mon 09:21:34 PM 41.7333 -87.6833 304° West 122 140 1,800 -500 Descending Chicago TRACON
Mon 09:22:34 PM 41.7500 -87.7000 323° Northwest 104 120 1,500 -429 Descending Chicago TRACON
Mon 09:23:40 PM 41.7667 -87.7333 304° West 91 105 900 -545 Descending Chicago TRACON

Login

Don't have an account? Register now (free) for customized features, flight alerts, and more!